Time;durP1;ratioP1;P1;durP2;ratioP2;P2;SDS_P1;SDS_P2;PMS_P1;PMS_P2;Temp;Humidity;BMP_temperature;BMP_pressure;BME280_temperature;BME280_humidity;BME280_pressure;Samples;Min_cycle;Max_cycle;Signal;HPM_P1;HPM_P2
2023/02/20 00:05:27;;;;;;;55.33;23.55;;;1.30;99.90;;;;;;20997425;28;20044;-64
2023/02/20 00:15:29;;;;;;;42.38;18.60;;;1.30;99.90;;;;;;21002135;28;20063;-57
2023/02/20 00:25:30;;;;;;;7.90;2.95;;;1.10;99.90;;;;;;21000410;28;20058;-60
2023/02/20 00:35:32;;;;;;;44.38;21.10;;;0.80;99.90;;;;;;20979656;28;20028;-65
2023/02/20 00:45:33;;;;;;;64.50;27.58;;;0.90;99.90;;;;;;20978121;28;20386;-58
2023/02/20 00:55:35;;;;;;;155.50;35.80;;;1.00;99.90;;;;;;20988811;28;20041;-57
2023/02/20 01:05:37;;;;;;;55.30;22.88;;;1.30;99.90;;;;;;20991257;28;20437;-64
2023/02/20 01:15:38;;;;;;;84.82;27.73;;;1.40;99.90;;;;;;20983471;28;20051;-57
2023/02/20 01:25:40;;;;;;;4.60;1.67;;;1.00;99.90;;;;;;20955367;28;20074;-59
2023/02/20 01:35:42;;;;;;;5.20;1.75;;;0.80;99.90;;;;;;20989938;28;20078;-67
2023/02/20 01:45:44;;;;;;;40.83;18.38;;;1.10;99.90;;;;;;20978562;28;20033;-60
2023/02/20 01:55:57;;;;;;;72.03;29.35;;;1.10;99.90;;;;;;20986236;28;20043;-60
2023/02/20 02:06:08;;;;;;;131.60;35.63;;;1.10;99.90;;;;;;20967217;28;20029;-57
2023/02/20 02:17:05;;;;;;;183.48;41.45;;;1.20;99.90;;;;;;20985118;28;20059;-60
2023/02/20 02:27:43;;;;;;;96.38;37.08;;;1.50;99.90;;;;;;20730154;28;20103;-59
2023/02/20 02:38:06;;;;;;;235.57;44.72;;;1.60;99.90;;;;;;20793056;28;20046;-57
2023/02/20 02:48:27;;;;;;;142.20;39.97;;;1.60;99.90;;;;;;20697698;28;20108;-57
2023/02/20 02:58:28;;;;;;;105.10;37.67;;;1.60;99.90;;;;;;20959121;28;20029;-57
2023/02/20 03:08:36;;;;;;;43.95;19.73;;;1.40;99.90;;;;;;20967185;28;20052;-59
2023/02/20 03:18:40;;;;;;;86.72;32.97;;;0.90;99.90;;;;;;20981285;28;20025;-60
2023/02/20 03:29:02;;;;;;;92.05;30.67;;;0.80;99.90;;;;;;20982550;28;20032;-57
2023/02/20 04:00:04;;;;;;;37.40;17.33;;;0.20;99.90;;;;;;20977632;28;20086;-60
2023/02/20 04:10:22;;;;;;;26.77;10.88;;;0.20;99.90;;;;;;20986338;28;20036;-59
2023/02/20 04:20:24;;;;;;;19.98;8.70;;;0.30;99.90;;;;;;20996367;28;20040;-59
2023/02/20 04:30:45;;;;;;;;;;;0.40;99.90;;;;;;20987131;28;20032;-60
2023/02/20 04:40:47;;;;;;;14.90;6.43;;;0.30;99.90;;;;;;20982818;28;19934;-57
2023/02/20 04:50:48;;;;;;;14.43;6.60;;;0.30;99.90;;;;;;20976806;28;20503;-59
2023/02/20 05:00:51;;;;;;;15.00;7.38;;;0.60;99.90;;;;;;20993976;28;20074;-67
2023/02/20 05:10:53;;;;;;;12.70;6.47;;;0.70;99.90;;;;;;20986868;28;20044;-60
2023/02/20 05:31:16;;;;;;;;;;;1.00;99.90;;;;;;20983348;28;20037;-67
2023/02/20 05:41:18;;;;;;;60.90;25.48;;;0.80;99.90;;;;;;20989750;28;20373;-67
2023/02/20 05:51:26;;;;;;;22.42;10.60;;;0.50;99.90;;;;;;20984542;28;20029;-60
2023/02/20 06:01:30;;;;;;;79.40;27.23;;;0.00;99.90;;;;;;20988568;28;20032;-60
2023/02/20 06:11:31;;;;;;;50.47;21.90;;;0.00;99.90;;;;;;20953703;28;20128;-57
2023/02/20 06:21:34;;;;;;;41.95;18.27;;;-0.10;99.90;;;;;;20961288;28;20410;-58
2023/02/20 06:31:36;;;;;;;545.45;49.67;;;-0.10;99.90;;;;;;20949765;28;20082;-66
2023/02/20 06:41:38;;;;;;;211.25;35.05;;;0.30;99.90;;;;;;20949225;28;20036;-57
2023/02/20 06:51:40;;;;;;;58.42;25.17;;;0.60;99.90;;;;;;20973697;28;20044;-59
2023/02/20 07:01:42;;;;;;;81.55;30.08;;;0.70;99.90;;;;;;20986063;28;20058;-58
2023/02/20 07:11:49;;;;;;;63.05;25.98;;;1.00;99.90;;;;;;20976203;28;20052;-63
2023/02/20 07:21:51;;;;;;;17.73;8.38;;;1.30;99.90;;;;;;20970363;28;20090;-56
2023/02/20 07:31:52;;;;;;;11.18;5.43;;;1.90;99.90;;;;;;20961191;28;20029;-57
2023/02/20 07:41:54;;;;;;;6.95;3.63;;;2.70;99.90;;;;;;20951372;28;20465;-57
2023/02/20 07:52:31;;;;;;;7.88;3.70;;;3.30;99.90;;;;;;20899052;28;20049;-57
2023/02/20 08:02:32;;;;;;;7.80;3.97;;;3.90;99.90;;;;;;20907020;28;20045;-58
2023/02/20 08:12:34;;;;;;;5.25;2.78;;;4.50;99.90;;;;;;20880141;28;20076;-57
2023/02/20 08:22:35;;;;;;;8.82;4.65;;;5.00;99.90;;;;;;20928372;28;20091;-55
2023/02/20 08:32:37;;;;;;;15.10;7.93;;;5.60;99.90;;;;;;20977908;28;20032;-57
2023/02/20 08:42:39;;;;;;;15.52;8.50;;;6.20;99.90;;;;;;20977588;28;20036;-57
2023/02/20 08:52:44;;;;;;;25.70;14.15;;;6.40;99.90;;;;;;20990379;28;20058;-64
2023/02/20 09:02:46;;;;;;;24.60;13.60;;;6.80;99.90;;;;;;20980161;28;20382;-63
2023/02/20 09:12:48;;;;;;;26.30;15.30;;;6.90;99.90;;;;;;20992971;28;20067;-57
2023/02/20 09:22:50;;;;;;;34.75;19.85;;;7.30;99.90;;;;;;20975895;28;20029;-57
2023/02/20 09:32:53;;;;;;;32.97;18.13;;;7.60;99.90;;;;;;20985507;28;20078;-63
2023/02/20 09:43:18;;;;;;;40.15;21.95;;;7.70;99.90;;;;;;20981007;28;20039;-57
2023/02/20 09:53:25;;;;;;;42.72;24.27;;;8.00;99.90;;;;;;20990643;28;20082;-64
2023/02/20 10:03:39;;;;;;;50.55;27.50;;;8.10;99.90;;;;;;20990978;28;20040;-64
2023/02/20 10:14:09;;;;;;;46.83;25.58;;;8.00;99.90;;;;;;20983010;28;20043;-63
2023/02/20 10:24:35;;;;;;;50.78;27.63;;;8.00;99.90;;;;;;20747837;28;20050;-63
2023/02/20 10:34:41;;;;;;;40.63;22.67;;;8.30;99.90;;;;;;20770565;28;20088;-57
2023/02/20 10:44:46;;;;;;;45.63;25.58;;;8.40;99.90;;;;;;20715023;28;20046;-57
2023/02/20 10:54:58;;;;;;;40.70;22.95;;;9.10;99.90;;;;;;20797096;28;20071;-63
2023/02/20 11:05:07;;;;;;;42.13;24.35;;;9.20;99.90;;;;;;20976568;28;20033;-57
2023/02/20 11:15:14;;;;;;;49.63;28.03;;;10.40;99.90;;;;;;20982423;28;20485;-61
2023/02/20 11:25:28;;;;;;;37.25;22.88;;;11.70;99.90;;;;;;20974458;28;20366;-63
2023/02/20 11:35:37;;;;;;;22.40;14.18;;;12.20;99.90;;;;;;20985451;28;20090;-56
2023/02/20 11:45:40;;;;;;;23.85;14.70;;;13.30;99.90;;;;;;20972382;28;20039;-63
2023/02/20 11:55:41;;;;;;;20.77;13.05;;;13.60;97.30;;;;;;20980521;28;20098;-64
2023/02/20 12:05:46;;;;;;;31.58;19.58;;;12.40;96.10;;;;;;20980842;28;20032;-57
2023/02/20 12:16:11;;;;;;;30.52;18.08;;;12.20;98.90;;;;;;20978249;28;20493;-63
2023/02/20 12:26:44;;;;;;;46.20;28.50;;;12.00;98.20;;;;;;20959604;28;20032;-56
2023/02/20 12:37:09;;;;;;;54.78;32.25;;;12.70;99.90;;;;;;20995832;28;20040;-63
2023/02/20 12:47:20;;;;;;;52.25;30.10;;;12.40;99.90;;;;;;20990650;28;20394;-57
2023/02/20 12:57:46;;;;;;;50.83;29.10;;;11.60;99.90;;;;;;20987015;28;20033;-57
2023/02/20 13:07:55;;;;;;;49.88;29.50;;;12.10;99.90;;;;;;20978673;28;20048;-55
2023/02/20 13:18:19;;;;;;;60.65;35.25;;;12.20;99.90;;;;;;20995232;28;20047;-54
2023/02/20 13:28:27;;;;;;;64.78;35.72;;;12.40;99.90;;;;;;20987313;28;20094;-53
2023/02/20 13:38:29;;;;;;;59.70;34.63;;;12.70;99.90;;;;;;20976132;28;20365;-56
2023/02/20 13:48:32;;;;;;;56.90;32.78;;;12.50;99.90;;;;;;20974893;28;20028;-63
2023/02/20 13:58:34;;;;;;;58.22;34.08;;;11.70;99.90;;;;;;20987253;28;20032;-63
2023/02/20 14:08:40;;;;;;;58.83;32.72;;;11.00;99.90;;;;;;20988918;28;20124;-64
2023/02/20 14:18:42;;;;;;;65.60;35.08;;;10.70;99.90;;;;;;20989411;28;20024;-58
2023/02/20 14:28:49;;;;;;;67.70;38.10;;;10.30;99.90;;;;;;20969007;28;20020;-58
2023/02/20 14:39:28;;;;;;;61.90;36.67;;;9.80;99.90;;;;;;20985650;28;20029;-57
2023/02/20 14:49:30;;;;;;;65.95;36.38;;;9.60;99.90;;;;;;20986072;28;20037;-58
2023/02/20 14:59:38;;;;;;;78.07;41.38;;;9.30;99.90;;;;;;20985642;28;20040;-64
2023/02/20 15:09:46;;;;;;;73.75;40.35;;;9.20;99.90;;;;;;20964951;28;20036;-58
2023/02/20 15:19:49;;;;;;;74.30;39.60;;;8.70;99.90;;;;;;20979421;28;20054;-58
2023/02/20 15:30:13;;;;;;;80.05;42.13;;;8.00;99.90;;;;;;20982376;28;20097;-65
2023/02/20 15:40:35;;;;;;;73.03;36.83;;;7.70;99.90;;;;;;20969166;28;20040;-58
2023/02/20 15:50:37;;;;;;;60.80;31.77;;;7.70;99.90;;;;;;20983918;28;20033;-57
2023/02/20 16:00:39;;;;;;;50.72;27.08;;;7.70;99.90;;;;;;20979159;28;20037;-58
2023/02/20 16:10:40;;;;;;;73.57;38.50;;;7.50;99.90;;;;;;20946687;28;20448;-65
2023/02/20 16:20:42;;;;;;;71.35;34.92;;;7.10;99.90;;;;;;20986574;28;20040;-64
2023/02/20 16:30:44;;;;;;;55.47;28.05;;;6.60;99.90;;;;;;20997149;28;20055;-58
2023/02/20 16:40:48;;;;;;;50.20;24.85;;;6.10;99.90;;;;;;20960262;28;20095;-64
2023/02/20 16:50:52;;;;;;;39.00;18.27;;;5.70;99.90;;;;;;20984161;28;20094;-58
2023/02/20 17:00:54;;;;;;;34.90;16.38;;;5.20;99.90;;;;;;20987011;28;20421;-64
2023/02/20 17:10:55;;;;;;;31.08;15.88;;;4.80;99.90;;;;;;20985648;28;20052;-64
2023/02/20 17:20:57;;;;;;;41.63;20.50;;;4.70;99.90;;;;;;20982613;28;20106;-65
2023/02/20 17:30:58;;;;;;;43.78;21.25;;;4.50;99.90;;;;;;20981403;28;20037;-65
2023/02/20 17:41:00;;;;;;;46.25;20.02;;;4.20;99.90;;;;;;20956820;28;20037;-57
2023/02/20 17:51:02;;;;;;;16.20;8.00;;;4.00;99.90;;;;;;20973239;28;20371;-58
2023/02/20 18:01:04;;;;;;;5.75;2.20;;;3.80;99.90;;;;;;20976682;28;20035;-58
2023/02/20 18:11:06;;;;;;;5.70;2.92;;;3.90;99.90;;;;;;20984082;28;20551;-62
2023/02/20 18:21:17;;;;;;;11.82;5.55;;;4.10;99.90;;;;;;20983432;28;20028;-57
2023/02/20 18:31:19;;;;;;;18.88;8.80;;;4.10;99.90;;;;;;20985760;28;20136;-57
2023/02/20 18:41:21;;;;;;;14.45;6.50;;;4.10;99.90;;;;;;20975090;28;20381;-57
2023/02/20 18:51:32;;;;;;;28.40;14.05;;;4.00;99.90;;;;;;20982722;28;20410;-57
2023/02/20 19:01:39;;;;;;;11.97;6.00;;;3.90;99.90;;;;;;20987259;28;20082;-65
2023/02/20 19:11:40;;;;;;;12.25;6.20;;;3.50;99.90;;;;;;20981554;28;20048;-64
2023/02/20 19:21:42;;;;;;;33.55;14.95;;;3.30;99.90;;;;;;20977465;28;20040;-65
2023/02/20 19:31:43;;;;;;;27.85;12.82;;;3.20;99.90;;;;;;20985891;28;20051;-65
2023/02/20 19:41:49;;;;;;;32.42;15.23;;;3.00;99.90;;;;;;20982563;28;20028;-67
2023/02/20 19:51:53;;;;;;;23.80;11.35;;;3.00;99.90;;;;;;21000120;28;20117;-67
2023/02/20 20:01:57;;;;;;;5.47;2.67;;;2.80;99.90;;;;;;21000551;28;20264;-67
2023/02/20 20:11:59;;;;;;;11.93;4.85;;;2.70;99.90;;;;;;20992549;28;20436;-57
2023/02/20 20:22:01;;;;;;;7.72;3.65;;;2.80;99.90;;;;;;20989252;28;20082;-67
2023/02/20 20:32:03;;;;;;;8.05;3.28;;;3.00;99.90;;;;;;20977434;28;20389;-60
2023/02/20 20:42:04;;;;;;;5.75;3.38;;;3.00;99.90;;;;;;20983750;28;20404;-58
2023/02/20 20:52:06;;;;;;;6.68;3.17;;;3.10;99.90;;;;;;20989309;28;20085;-58
2023/02/20 21:02:08;;;;;;;5.25;2.75;;;3.30;99.90;;;;;;20986249;28;20040;-58
2023/02/20 21:12:12;;;;;;;28.45;14.35;;;3.30;99.90;;;;;;20991943;28;20092;-65
2023/02/20 21:22:14;;;;;;;19.20;8.27;;;3.30;99.90;;;;;;20991472;28;20028;-58
2023/02/20 21:32:15;;;;;;;5.78;2.65;;;3.20;99.90;;;;;;20983682;28;20098;-58
2023/02/20 21:52:37;;;;;;;12.43;5.17;;;3.00;99.90;;;;;;20988782;28;20082;-58
